Time;durP1;ratioP1;P1;durP2;ratioP2;P2;SDS_P1;SDS_P2;PMS_P1;PMS_P2;Temp;Humidity;BMP_temperature;BMP_pressure;BME280_temperature;BME280_humidity;BME280_pressure;Samples;Min_cycle;Max_cycle;Signal;HPM_P1;HPM_P2
2022/12/10 00:00:28;;;;;;;25.90;14.73;;;;;;;;;;5091334;28;20208;-37
2022/12/10 00:02:56;;;;;;;24.33;13.70;;;;;;;;;;5061722;28;20212;-32
2022/12/10 00:05:23;;;;;;;25.30;14.67;;;;;;;;;;5063458;28;20228;-35
2022/12/10 00:07:50;;;;;;;26.97;13.87;;;;;;;;;;5073953;28;20201;-34
2022/12/10 00:10:17;;;;;;;24.07;14.57;;;;;;;;;;5075274;28;20197;-34
2022/12/10 00:12:45;;;;;;;25.83;14.37;;;;;;;;;;5074962;28;20196;-39
2022/12/10 00:15:13;;;;;;;23.17;13.37;;;;;;;;;;5091673;28;20188;-36
2022/12/10 00:17:40;;;;;;;25.93;14.87;;;;;;;;;;5091887;28;20208;-35
2022/12/10 00:20:07;;;;;;;23.33;13.80;;;;;;;;;;5066589;28;20200;-33
2022/12/10 00:22:34;;;;;;;22.53;13.07;;;;;;;;;;5073874;28;20212;-34
2022/12/10 00:25:02;;;;;;;20.77;12.33;;;;;;;;;;5067819;28;20288;-35
2022/12/10 00:27:29;;;;;;;19.13;11.87;;;;;;;;;;5068910;28;20207;-37
2022/12/10 00:29:58;;;;;;;22.93;12.87;;;;;;;;;;5080019;28;20221;-34
2022/12/10 00:32:25;;;;;;;22.50;13.77;;;;;;;;;;5073113;28;20227;-33
2022/12/10 00:34:52;;;;;;;24.30;13.60;;;;;;;;;;5057486;28;20194;-35
2022/12/10 00:37:19;;;;;;;26.83;13.60;;;;;;;;;;5060083;28;20205;-38
2022/12/10 00:39:46;;;;;;;20.40;13.17;;;;;;;;;;5058189;28;20209;-29
2022/12/10 00:42:13;;;;;;;21.37;12.70;;;;;;;;;;5066169;28;20224;-37
2022/12/10 00:44:40;;;;;;;22.63;13.10;;;;;;;;;;5063585;28;20202;-36
2022/12/10 00:47:09;;;;;;;18.93;11.63;;;;;;;;;;5070944;28;20200;-37
2022/12/10 00:49:36;;;;;;;22.20;13.33;;;;;;;;;;5073932;28;20197;-38
2022/12/10 00:52:03;;;;;;;20.40;12.23;;;;;;;;;;5063792;28;20218;-40
2022/12/10 00:54:30;;;;;;;21.77;12.50;;;;;;;;;;5081248;28;20214;-34
2022/12/10 00:56:57;;;;;;;19.13;12.17;;;;;;;;;;5064660;28;20291;-38
2022/12/10 00:59:24;;;;;;;18.63;12.20;;;;;;;;;;5088785;28;20200;-41
2022/12/10 01:01:51;;;;;;;21.30;13.17;;;;;;;;;;5078773;28;20221;-39
2022/12/10 01:04:20;;;;;;;23.33;13.23;;;;;;;;;;5064724;28;20197;-34
2022/12/10 01:06:48;;;;;;;27.17;13.20;;;;;;;;;;5057317;28;20192;-31
2022/12/10 01:09:16;;;;;;;22.57;13.43;;;;;;;;;;5081068;28;20203;-35
2022/12/10 01:11:44;;;;;;;24.73;13.87;;;;;;;;;;5058857;28;20299;-36
2022/12/10 01:14:12;;;;;;;25.00;14.23;;;;;;;;;;5074732;28;20193;-38
2022/12/10 01:16:40;;;;;;;24.77;13.10;;;;;;;;;;5072141;28;20189;-36
2022/12/10 01:19:07;;;;;;;22.23;12.70;;;;;;;;;;5059901;28;20208;-32
2022/12/10 01:21:36;;;;;;;24.17;13.03;;;;;;;;;;5075327;28;20232;-36
2022/12/10 01:24:03;;;;;;;20.43;11.73;;;;;;;;;;5061005;28;20198;-36
2022/12/10 01:26:31;;;;;;;22.73;11.87;;;;;;;;;;5061504;28;20206;-32
2022/12/10 01:28:59;;;;;;;21.93;12.93;;;;;;;;;;5074629;28;20197;-33
2022/12/10 01:31:27;;;;;;;21.77;12.73;;;;;;;;;;5072293;28;20226;-33
2022/12/10 01:33:55;;;;;;;22.00;12.97;;;;;;;;;;5062695;28;20193;-33
2022/12/10 01:36:23;;;;;;;21.23;12.37;;;;;;;;;;5061452;28;20295;-34
2022/12/10 01:38:52;;;;;;;20.00;11.77;;;;;;;;;;5075505;28;20211;-35
2022/12/10 01:41:20;;;;;;;24.63;12.93;;;;;;;;;;5063976;28;20225;-30
2022/12/10 01:43:55;;;;;;;22.90;13.37;;;;;;;;;;5068481;28;20197;-37
2022/12/10 01:46:23;;;;;;;25.07;13.80;;;;;;;;;;5069055;28;20200;-31
2022/12/10 01:48:50;;;;;;;19.87;12.40;;;;;;;;;;5062919;28;20204;-38
2022/12/10 01:51:18;;;;;;;22.60;12.87;;;;;;;;;;5062891;28;20213;-37
2022/12/10 01:53:46;;;;;;;20.80;11.20;;;;;;;;;;5072405;28;20207;-38
2022/12/10 01:56:15;;;;;;;23.30;13.10;;;;;;;;;;5065764;28;20212;-34
2022/12/10 01:58:42;;;;;;;21.90;13.73;;;;;;;;;;5088146;28;20200;-32
2022/12/10 02:01:11;;;;;;;20.90;12.03;;;;;;;;;;5063212;28;20235;-37
2022/12/10 02:03:43;;;;;;;26.67;12.47;;;;;;;;;;5082194;28;20203;-36
2022/12/10 02:06:17;;;;;;;22.40;12.30;;;;;;;;;;5079154;28;20207;-39
2022/12/10 02:08:48;;;;;;;20.60;12.57;;;;;;;;;;5062353;28;20197;-39
2022/12/10 02:11:19;;;;;;;23.30;12.00;;;;;;;;;;5063362;28;20232;-31
2022/12/10 02:13:50;;;;;;;23.73;12.20;;;;;;;;;;5068548;28;20196;-39
2022/12/10 02:16:20;;;;;;;20.17;11.17;;;;;;;;;;5075239;28;20204;-38
2022/12/10 02:18:50;;;;;;;19.23;11.23;;;;;;;;;;5069088;28;20205;-36
2022/12/10 02:21:19;;;;;;;25.40;12.17;;;;;;;;;;5061584;28;20228;-37
2022/12/10 02:23:49;;;;;;;20.43;11.53;;;;;;;;;;5079262;28;20272;-35
2022/12/10 02:26:22;;;;;;;16.37;10.70;;;;;;;;;;5066435;28;20197;-35
2022/12/10 02:28:53;;;;;;;20.73;11.67;;;;;;;;;;5071802;28;20201;-36
2022/12/10 02:31:23;;;;;;;20.17;12.17;;;;;;;;;;5080554;28;20219;-36
2022/12/10 02:33:51;;;;;;;23.90;13.07;;;;;;;;;;5071551;28;20205;-41
2022/12/10 02:36:18;;;;;;;22.77;12.10;;;;;;;;;;5061980;28;20210;-32
2022/12/10 02:38:46;;;;;;;22.10;13.27;;;;;;;;;;5084131;28;20197;-31
2022/12/10 02:41:15;;;;;;;20.00;11.53;;;;;;;;;;5077089;28;20217;-37
2022/12/10 02:43:44;;;;;;;23.80;13.40;;;;;;;;;;5059962;28;20283;-39
2022/12/10 02:46:11;;;;;;;22.10;13.47;;;;;;;;;;5072945;28;20200;-40
2022/12/10 02:48:41;;;;;;;23.57;12.53;;;;;;;;;;5067844;28;20201;-29
2022/12/10 02:51:08;;;;;;;19.87;12.30;;;;;;;;;;5081112;28;20217;-35
2022/12/10 02:56:09;;;;;;;20.23;12.43;;;;;;;;;;5019492;28;20211;-34
2022/12/10 02:58:40;;;;;;;18.60;12.13;;;;;;;;;;5024567;28;20233;-41
2022/12/10 03:01:13;;;;;;;19.30;12.13;;;;;;;;;;5023715;28;20223;-34
2022/12/10 03:03:45;;;;;;;22.67;12.20;;;;;;;;;;5022194;28;20203;-40
2022/12/10 03:06:18;;;;;;;18.33;10.43;;;;;;;;;;5026151;28;20649;-35
2022/12/10 03:08:48;;;;;;;20.80;12.93;;;;;;;;;;5027614;28;20199;-37
2022/12/10 03:11:16;;;;;;;19.73;12.20;;;;;;;;;;5021914;28;20598;-37
2022/12/10 03:13:47;;;;;;;21.47;11.80;;;;;;;;;;5022830;28;20210;-34
2022/12/10 03:16:15;;;;;;;21.30;12.30;;;;;;;;;;5027147;28;20203;-36
2022/12/10 03:18:45;;;;;;;19.13;11.23;;;;;;;;;;5024371;28;20205;-34
2022/12/10 03:21:13;;;;;;;19.03;12.13;;;;;;;;;;5019369;28;20281;-32
2022/12/10 03:23:42;;;;;;;21.37;11.60;;;;;;;;;;5033441;28;20272;-39
2022/12/10 03:26:10;;;;;;;18.47;11.07;;;;;;;;;;5031288;28;20206;-33
2022/12/10 03:28:39;;;;;;;19.00;12.13;;;;;;;;;;5017858;28;20210;-36
2022/12/10 03:31:08;;;;;;;19.67;11.43;;;;;;;;;;5035611;28;20244;-36
2022/12/10 03:33:35;;;;;;;21.23;12.43;;;;;;;;;;5035329;28;20198;-36
2022/12/10 03:36:04;;;;;;;16.40;10.83;;;;;;;;;;5034224;28;20210;-34
2022/12/10 03:38:31;;;;;;;22.70;11.93;;;;;;;;;;5026981;28;20198;-32
2022/12/10 03:40:58;;;;;;;18.37;10.90;;;;;;;;;;5030089;28;20238;-33
2022/12/10 03:43:26;;;;;;;19.37;11.40;;;;;;;;;;5029074;28;20337;-33
2022/12/10 03:45:53;;;;;;;18.83;11.17;;;;;;;;;;5026149;28;20286;-37
2022/12/10 03:48:20;;;;;;;20.80;11.80;;;;;;;;;;5027283;28;20209;-32
2022/12/10 03:50:47;;;;;;;19.80;11.53;;;;;;;;;;5017898;28;20230;-36
2022/12/10 03:53:15;;;;;;;19.10;11.27;;;;;;;;;;5021271;28;20205;-32
2022/12/10 03:55:42;;;;;;;19.23;10.67;;;;;;;;;;5028618;28;20210;-33
2022/12/10 03:58:10;;;;;;;21.37;11.63;;;;;;;;;;5030572;28;20211;-35
2022/12/10 04:00:37;;;;;;;17.40;11.07;;;;;;;;;;5028331;28;20673;-33
2022/12/10 04:03:04;;;;;;;19.20;10.57;;;;;;;;;;5027058;28;20314;-34
2022/12/10 04:05:31;;;;;;;18.03;10.77;;;;;;;;;;5025140;28;20204;-37
2022/12/10 04:07:58;;;;;;;18.13;10.53;;;;;;;;;;5026265;28;20217;-35
2022/12/10 04:10:27;;;;;;;17.67;10.63;;;;;;;;;;5015779;28;20258;-29
2022/12/10 04:18:20;;;;;;;17.73;10.27;;;;;;;;;;5010268;28;20230;-33
2022/12/10 04:28:59;;;;;;;17.57;10.50;;;;;;;;;;5028817;28;20209;-29
2022/12/10 04:31:26;;;;;;;18.60;10.67;;;;;;;;;;5031955;28;20233;-32
2022/12/10 04:33:53;;;;;;;19.00;11.30;;;;;;;;;;5031819;28;20195;-33
2022/12/10 04:36:20;;;;;;;15.90;10.43;;;;;;;;;;5015251;28;20290;-34
2022/12/10 04:38:47;;;;;;;18.67;10.20;;;;;;;;;;5016188;28;20290;-33
2022/12/10 04:41:16;;;;;;;16.23;10.07;;;;;;;;;;5023710;28;20712;-36
2022/12/10 04:43:43;;;;;;;18.03;11.03;;;;;;;;;;5022068;28;20222;-34
2022/12/10 04:46:10;;;;;;;17.57;10.80;;;;;;;;;;5030961;28;20293;-35
2022/12/10 04:48:38;;;;;;;18.67;11.47;;;;;;;;;;5031735;28;20224;-33
2022/12/10 04:51:05;;;;;;;16.43;10.63;;;;;;;;;;5021178;28;20219;-32
2022/12/10 04:53:32;;;;;;;17.77;10.73;;;;;;;;;;5022818;28;20195;-35
2022/12/10 04:56:00;;;;;;;17.50;11.43;;;;;;;;;;5026344;28;20214;-33
2022/12/10 04:58:30;;;;;;;16.83;11.23;;;;;;;;;;5030299;28;20316;-31
2022/12/10 05:01:02;;;;;;;17.20;10.53;;;;;;;;;;5027968;28;20223;-34
2022/12/10 05:03:29;;;;;;;19.43;10.93;;;;;;;;;;5031105;28;20706;-32
2022/12/10 05:05:56;;;;;;;18.43;10.30;;;;;;;;;;5020860;28;20294;-30
2022/12/10 05:08:23;;;;;;;16.10;9.70;;;;;;;;;;5017969;28;20293;-37
2022/12/10 05:10:50;;;;;;;17.53;10.87;;;;;;;;;;5023315;28;20227;-36
2022/12/10 05:13:17;;;;;;;15.10;9.77;;;;;;;;;;5025846;28;20195;-32
2022/12/10 05:15:46;;;;;;;19.97;10.37;;;;;;;;;;5027441;28;20209;-34
2022/12/10 05:18:13;;;;;;;16.57;9.53;;;;;;;;;;5031028;28;20562;-38
2022/12/10 05:20:40;;;;;;;17.53;10.13;;;;;;;;;;5020418;28;20223;-33
2022/12/10 05:25:59;;;;;;;20.63;11.13;;;;;;;;;;5022285;28;20217;-36
2022/12/10 05:28:26;;;;;;;16.43;10.50;;;;;;;;;;5014571;28;20204;-39
2022/12/10 05:30:54;;;;;;;15.97;10.17;;;;;;;;;;5017231;28;20231;-36
2022/12/10 05:33:22;;;;;;;16.17;9.37;;;;;;;;;;5017603;28;20565;-34
2022/12/10 05:35:53;;;;;;;12.83;8.83;;;;;;;;;;5022841;28;20209;-35
2022/12/10 05:38:20;;;;;;;17.33;11.07;;;;;;;;;;5023509;28;20214;-32
2022/12/10 05:40:47;;;;;;;14.73;9.80;;;;;;;;;;5023627;28;20222;-33
2022/12/10 05:43:15;;;;;;;15.90;10.00;;;;;;;;;;5027227;28;20231;-36
2022/12/10 05:45:42;;;;;;;16.43;10.73;;;;;;;;;;5019381;28;20209;-38
2022/12/10 05:48:11;;;;;;;14.50;9.53;;;;;;;;;;5012130;28;20207;-33
2022/12/10 05:50:39;;;;;;;14.60;9.67;;;;;;;;;;5021986;28;20233;-35
2022/12/10 05:53:06;;;;;;;14.80;10.07;;;;;;;;;;5024431;28;20265;-32
2022/12/10 05:55:33;;;;;;;16.53;9.47;;;;;;;;;;5026955;28;20217;-34
2022/12/10 05:58:01;;;;;;;17.13;10.00;;;;;;;;;;5021574;28;20211;-32
2022/12/10 06:00:28;;;;;;;19.43;10.53;;;;;;;;;;5030110;28;20233;-31
2022/12/10 06:02:56;;;;;;;17.17;10.23;;;;;;;;;;5032244;28;20248;-32
2022/12/10 06:05:24;;;;;;;18.40;10.27;;;;;;;;;;5022320;28;20199;-35
2022/12/10 06:07:51;;;;;;;16.77;10.30;;;;;;;;;;5020962;28;20205;-31
2022/12/10 06:10:19;;;;;;;18.77;10.07;;;;;;;;;;5013642;28;20679;-32
2022/12/10 06:12:46;;;;;;;17.43;10.80;;;;;;;;;;5019290;28;20281;-38
2022/12/10 06:15:13;;;;;;;17.83;11.37;;;;;;;;;;5030733;28;20201;-33
2022/12/10 06:17:40;;;;;;;18.90;11.30;;;;;;;;;;5030912;28;20580;-37
2022/12/10 06:20:08;;;;;;;18.60;10.90;;;;;;;;;;5015934;28;20203;-36
2022/12/10 06:22:37;;;;;;;12.07;8.73;;;;;;;;;;5021428;28;20566;-35
2022/12/10 06:25:05;;;;;;;17.60;10.40;;;;;;;;;;5029537;28;20312;-35
2022/12/10 06:27:34;;;;;;;18.03;10.27;;;;;;;;;;5014532;28;20203;-35
2022/12/10 06:30:01;;;;;;;20.50;11.43;;;;;;;;;;5019996;28;20202;-34
2022/12/10 06:32:30;;;;;;;16.60;10.97;;;;;;;;;;5024450;28;20211;-35
2022/12/10 06:34:57;;;;;;;16.23;10.57;;;;;;;;;;5029800;28;20244;-31
2022/12/10 06:37:24;;;;;;;18.77;11.07;;;;;;;;;;5017808;28;20207;-31
2022/12/10 06:39:53;;;;;;;17.27;11.40;;;;;;;;;;5027597;28;20199;-33
2022/12/10 06:42:20;;;;;;;14.37;10.27;;;;;;;;;;5028040;28;20761;-34
2022/12/10 06:44:47;;;;;;;15.77;10.03;;;;;;;;;;5025690;28;20634;-37
2022/12/10 06:47:14;;;;;;;14.83;9.73;;;;;;;;;;5034959;28;20564;-33
2022/12/10 06:49:41;;;;;;;16.37;9.53;;;;;;;;;;5026439;28;20203;-37
2022/12/10 06:52:09;;;;;;;16.13;9.43;;;;;;;;;;5013893;28;20227;-32
2022/12/10 06:54:36;;;;;;;14.50;9.83;;;;;;;;;;5019958;28;20696;-35
2022/12/10 06:57:04;;;;;;;15.40;10.70;;;;;;;;;;5016353;28;20218;-38
2022/12/10 06:59:31;;;;;;;15.17;10.57;;;;;;;;;;5022854;28;20209;-34
2022/12/10 07:01:59;;;;;;;18.10;12.50;;;;;;;;;;5033299;28;20226;-38
2022/12/10 07:04:26;;;;;;;17.33;11.17;;;;;;;;;;5021687;28;20226;-36
2022/12/10 07:06:53;;;;;;;15.87;9.97;;;;;;;;;;5025452;28;20598;-37
2022/12/10 07:09:20;;;;;;;16.80;10.17;;;;;;;;;;5027609;28;20289;-34
2022/12/10 07:11:47;;;;;;;18.20;10.80;;;;;;;;;;5026269;28;20222;-36
2022/12/10 07:14:17;;;;;;;19.03;12.20;;;;;;;;;;5016290;28;20203;-32
2022/12/10 07:16:44;;;;;;;18.37;11.30;;;;;;;;;;5013924;28;20571;-32
2022/12/10 07:19:12;;;;;;;17.37;10.87;;;;;;;;;;5013247;28;20233;-39
2022/12/10 07:21:41;;;;;;;17.50;10.87;;;;;;;;;;5010328;28;20571;-35
2022/12/10 07:24:09;;;;;;;16.73;10.80;;;;;;;;;;5025496;28;20215;-32
2022/12/10 07:26:37;;;;;;;19.17;11.37;;;;;;;;;;5016466;28;20301;-37
2022/12/10 07:29:05;;;;;;;16.00;9.73;;;;;;;;;;5025581;28;20200;-35
2022/12/10 07:31:39;;;;;;;17.03;10.33;;;;;;;;;;5031801;28;20665;-31
2022/12/10 07:34:07;;;;;;;18.20;11.00;;;;;;;;;;5033090;28;20194;-32
2022/12/10 07:36:34;;;;;;;16.53;10.53;;;;;;;;;;5023249;28;20207;-35
2022/12/10 07:39:01;;;;;;;15.43;9.80;;;;;;;;;;5027049;28;20195;-33
2022/12/10 07:41:29;;;;;;;19.70;11.57;;;;;;;;;;5021920;28;20309;-33
2022/12/10 07:43:56;;;;;;;20.07;12.57;;;;;;;;;;5014784;28;20318;-34
2022/12/10 07:46:24;;;;;;;17.33;11.10;;;;;;;;;;5014742;28;20296;-29
2022/12/10 07:48:52;;;;;;;19.67;11.60;;;;;;;;;;5014831;28;20203;-30
2022/12/10 07:51:22;;;;;;;18.33;11.23;;;;;;;;;;5022879;28;20695;-33
2022/12/10 07:53:49;;;;;;;16.40;10.60;;;;;;;;;;5025940;28;20187;-37
2022/12/10 07:56:16;;;;;;;15.27;10.27;;;;;;;;;;5020908;28;20203;-29
2022/12/10 07:58:45;;;;;;;17.70;10.53;;;;;;;;;;5017716;28;20544;-32
2022/12/10 08:01:13;;;;;;;18.63;12.27;;;;;;;;;;5034535;28;20275;-35
2022/12/10 08:03:41;;;;;;;16.97;10.70;;;;;;;;;;5031243;28;20676;-32
2022/12/10 08:06:10;;;;;;;18.47;12.27;;;;;;;;;;5029863;28;20199;-32
2022/12/10 08:08:38;;;;;;;20.87;11.60;;;;;;;;;;5030842;28;20282;-34
2022/12/10 08:11:06;;;;;;;18.57;11.10;;;;;;;;;;5020086;28;20223;-34
2022/12/10 08:13:34;;;;;;;19.33;11.37;;;;;;;;;;5026239;28;20198;-34
2022/12/10 08:16:02;;;;;;;24.43;12.57;;;;;;;;;;5028676;28;20198;-35
2022/12/10 08:18:30;;;;;;;21.27;10.90;;;;;;;;;;5034121;28;20207;-34
2022/12/10 08:20:57;;;;;;;16.43;10.43;;;;;;;;;;5017793;28;20215;-34
2022/12/10 08:23:25;;;;;;;18.93;10.93;;;;;;;;;;5031153;28;20340;-33
2022/12/10 08:25:52;;;;;;;20.03;11.77;;;;;;;;;;5025282;28;20203;-35
2022/12/10 08:28:19;;;;;;;17.07;10.60;;;;;;;;;;5020373;28;20668;-31
2022/12/10 08:30:47;;;;;;;19.97;11.23;;;;;;;;;;5021164;28;20226;-32
2022/12/10 08:33:14;;;;;;;19.30;12.20;;;;;;;;;;5014298;28;20545;-33
2022/12/10 08:35:41;;;;;;;19.53;12.27;;;;;;;;;;5017251;28;20910;-33
2022/12/10 08:38:09;;;;;;;19.77;11.83;;;;;;;;;;5032826;28;20201;-35
2022/12/10 08:40:43;;;;;;;18.07;11.47;;;;;;;;;;5023324;28;20240;-32
2022/12/10 08:43:10;;;;;;;21.97;14.03;;;;;;;;;;5027911;28;20232;-34
2022/12/10 08:45:37;;;;;;;17.87;11.03;;;;;;;;;;5025367;28;20421;-31
2022/12/10 08:48:05;;;;;;;16.77;10.57;;;;;;;;;;5033552;28;20551;-35
2022/12/10 08:50:32;;;;;;;17.23;11.03;;;;;;;;;;5026034;28;20306;-36
2022/12/10 08:52:59;;;;;;;19.37;9.97;;;;;;;;;;5021036;28;20203;-36
2022/12/10 08:55:26;;;;;;;16.17;10.70;;;;;;;;;;5120432;22;20239;-31
2022/12/10 08:57:55;;;;;;;17.97;11.93;;;;;;;;;;5078900;28;20203;-30
2022/12/10 09:00:22;;;;;;;19.53;12.00;;;;;;;;;;5078272;28;20201;-29
2022/12/10 09:02:49;;;;;;;17.67;11.20;;;;;;;;;;5092176;28;20291;-28
2022/12/10 09:05:16;;;;;;;16.63;10.47;;;;;;;;;;5085086;28;20297;-27
2022/12/10 09:07:43;;;;;;;20.07;11.33;;;;;;;;;;5087018;28;20200;-31
2022/12/10 09:10:12;;;;;;;19.33;11.93;;;;;;;;;;5092839;28;20205;-29
2022/12/10 09:12:39;;;;;;;20.53;11.93;;;;;;;;;;5075345;28;20213;-29
2022/12/10 09:15:10;;;;;;;17.83;10.77;;;;;;;;;;5086651;28;20239;-25
2022/12/10 09:17:38;;;;;;;19.27;12.03;;;;;;;;;;5090112;28;20213;-30
2022/12/10 09:20:06;;;;;;;16.37;9.93;;;;;;;;;;5078866;28;20502;-30
2022/12/10 09:22:36;;;;;;;19.23;11.63;;;;;;;;;;5086168;28;20207;-29
2022/12/10 09:25:04;;;;;;;17.17;11.23;;;;;;;;;;5087563;28;20579;-30
2022/12/10 09:27:31;;;;;;;21.33;11.33;;;;;;;;;;5077959;28;20615;-31
2022/12/10 09:29:58;;;;;;;18.03;10.63;;;;;;;;;;5085935;28;20251;-27
2022/12/10 09:32:27;;;;;;;18.13;11.97;;;;;;;;;;5093383;28;20224;-31
2022/12/10 09:34:54;;;;;;;17.40;10.87;;;;;;;;;;5086210;28;20722;-30
2022/12/10 09:37:21;;;;;;;18.43;11.37;;;;;;;;;;5086799;28;20201;-29
2022/12/10 09:39:48;;;;;;;17.17;11.20;;;;;;;;;;5078885;28;20208;-32
2022/12/10 09:42:20;;;;;;;17.43;10.90;;;;;;;;;;5072846;28;20342;-27
2022/12/10 09:44:53;;;;;;;17.93;10.87;;;;;;;;;;5086326;28;20244;-33
2022/12/10 09:47:24;;;;;;;20.80;11.00;;;;;;;;;;5086456;28;20204;-32
2022/12/10 09:49:58;;;;;;;18.17;11.03;;;;;;;;;;5075392;28;20199;-32
2022/12/10 09:52:27;;;;;;;19.03;11.17;;;;;;;;;;5082348;28;20224;-29
2022/12/10 09:54:59;;;;;;;17.73;10.83;;;;;;;;;;5087255;28;20197;-29
2022/12/10 09:57:30;;;;;;;18.50;10.93;;;;;;;;;;5080208;28;20236;-29
2022/12/10 09:59:57;;;;;;;20.77;11.57;;;;;;;;;;5085733;28;20205;-28
2022/12/10 10:02:27;;;;;;;19.23;11.30;;;;;;;;;;5092303;28;20216;-28
2022/12/10 10:04:57;;;;;;;15.50;10.77;;;;;;;;;;5082314;28;20217;-30
2022/12/10 10:07:25;;;;;;;18.53;11.07;;;;;;;;;;5085860;28;20200;-29
2022/12/10 10:09:56;;;;;;;20.60;11.73;;;;;;;;;;5092414;28;20196;-27
2022/12/10 10:12:23;;;;;;;17.47;11.47;;;;;;;;;;5080220;28;20607;-28
2022/12/10 10:14:51;;;;;;;17.13;11.07;;;;;;;;;;5087390;28;20201;-28
2022/12/10 10:17:20;;;;;;;16.83;10.47;;;;;;;;;;5090239;28;20200;-27
2022/12/10 10:19:49;;;;;;;16.67;11.00;;;;;;;;;;5080258;28;20197;-30
2022/12/10 10:22:17;;;;;;;17.20;10.33;;;;;;;;;;5087451;28;20216;-30
2022/12/10 10:24:46;;;;;;;18.17;11.33;;;;;;;;;;5083385;28;20229;-28
2022/12/10 10:27:15;;;;;;;20.13;12.83;;;;;;;;;;5085227;28;20288;-29
2022/12/10 10:29:43;;;;;;;15.23;9.67;;;;;;;;;;5084744;28;20204;-28
2022/12/10 10:32:15;;;;;;;17.73;11.30;;;;;;;;;;5092022;28;20243;-27
2022/12/10 10:34:43;;;;;;;17.00;10.33;;;;;;;;;;5085173;28;20196;-29
2022/12/10 10:37:16;;;;;;;18.70;10.67;;;;;;;;;;5086500;28;20207;-28
2022/12/10 10:39:47;;;;;;;17.90;10.60;;;;;;;;;;5089767;28;20588;-30
2022/12/10 10:42:21;;;;;;;17.60;10.87;;;;;;;;;;5086489;28;20224;-29
2022/12/10 10:44:48;;;;;;;18.00;11.30;;;;;;;;;;5086219;28;20217;-31
2022/12/10 10:47:26;;;;;;;16.07;11.03;;;;;;;;;;5091186;28;20289;-26
2022/12/10 10:49:54;;;;;;;16.67;11.03;;;;;;;;;;5090050;28;20286;-30
2022/12/10 10:52:21;;;;;;;19.17;10.57;;;;;;;;;;5082279;28;20229;-30
2022/12/10 10:54:50;;;;;;;17.73;10.10;;;;;;;;;;5088268;28;20292;-32
2022/12/10 10:57:21;;;;;;;19.07;10.47;;;;;;;;;;5082825;28;20220;-30
2022/12/10 10:59:49;;;;;;;14.37;9.57;;;;;;;;;;5089640;28;20204;-32
2022/12/10 11:02:21;;;;;;;19.40;10.43;;;;;;;;;;5094988;28;20316;-28
2022/12/10 11:04:49;;;;;;;19.03;10.63;;;;;;;;;;5084292;28;20315;-29
2022/12/10 11:07:20;;;;;;;17.90;11.17;;;;;;;;;;5085351;28;20208;-31
2022/12/10 11:09:47;;;;;;;17.47;11.47;;;;;;;;;;5086659;28;20263;-27
2022/12/10 11:12:29;;;;;;;20.20;11.33;;;;;;;;;;5082571;28;20320;-31
2022/12/10 11:14:56;;;;;;;15.50;10.10;;;;;;;;;;5083522;28;20193;-27
2022/12/10 11:17:24;;;;;;;18.47;11.40;;;;;;;;;;5088988;28;20207;-29
2022/12/10 11:19:56;;;;;;;16.73;10.67;;;;;;;;;;5081252;28;20693;-29
2022/12/10 11:22:24;;;;;;;17.67;10.97;;;;;;;;;;5087505;28;20284;-28
2022/12/10 11:24:51;;;;;;;13.93;9.93;;;;;;;;;;5089107;28;20216;-30
2022/12/10 11:27:24;;;;;;;16.73;9.93;;;;;;;;;;5082820;28;20200;-27
2022/12/10 11:29:57;;;;;;;16.37;11.50;;;;;;;;;;5088830;28;20200;-29
2022/12/10 11:32:34;;;;;;;19.90;11.97;;;;;;;;;;5089240;28;20235;-29
2022/12/10 11:35:07;;;;;;;16.53;11.07;;;;;;;;;;5083405;28;20201;-29
2022/12/10 11:37:35;;;;;;;19.07;12.20;;;;;;;;;;5088187;28;20201;-29
2022/12/10 11:40:20;;;;;;;18.87;10.87;;;;;;;;;;5083310;28;20203;-31
2022/12/10 11:42:52;;;;;;;16.93;11.20;;;;;;;;;;5087460;28;20207;-28
2022/12/10 11:45:24;;;;;;;15.70;10.93;;;;;;;;;;5088733;28;20218;-28
2022/12/10 11:48:00;;;;;;;15.00;10.30;;;;;;;;;;5089877;28;20189;-28
2022/12/10 11:50:30;;;;;;;18.03;10.87;;;;;;;;;;5071956;28;20319;-29
2022/12/10 11:53:04;;;;;;;18.00;11.23;;;;;;;;;;5087219;28;20211;-28
2022/12/10 11:55:36;;;;;;;17.67;11.23;;;;;;;;;;5085453;28;20212;-28
2022/12/10 11:58:13;;;;;;;18.90;11.73;;;;;;;;;;5089346;28;20201;-26
2022/12/10 12:00:45;;;;;;;13.47;9.70;;;;;;;;;;5088067;28;20761;-29
2022/12/10 12:03:25;;;;;;;17.47;10.97;;;;;;;;;;5084960;28;20224;-26
2022/12/10 12:06:07;;;;;;;18.00;11.13;;;;;;;;;;5082938;28;20279;-28
2022/12/10 12:08:41;;;;;;;16.10;10.97;;;;;;;;;;5087711;28;20588;-29
2022/12/10 12:11:20;;;;;;;18.93;10.53;;;;;;;;;;5079018;28;20240;-30
2022/12/10 12:13:51;;;;;;;18.67;12.67;;;;;;;;;;5080780;28;20213;-28
2022/12/10 12:16:24;;;;;;;21.67;12.77;;;;;;;;;;5088122;28;20197;-29
2022/12/10 12:18:56;;;;;;;19.37;11.00;;;;;;;;;;5084754;28;20205;-30
2022/12/10 12:21:23;;;;;;;16.90;10.60;;;;;;;;;;5085315;28;20221;-28
2022/12/10 12:23:52;;;;;;;18.60;11.93;;;;;;;;;;5087917;28;20381;-28
2022/12/10 12:26:23;;;;;;;19.00;12.13;;;;;;;;;;5082589;28;20200;-31
2022/12/10 12:28:52;;;;;;;15.57;8.37;;;;;;;;;;5082983;28;20205;-29
2022/12/10 12:31:22;;;;;;;18.03;11.63;;;;;;;;;;5088817;28;20655;-28
2022/12/10 12:33:53;;;;;;;19.00;12.40;;;;;;;;;;5089896;28;20726;-28
2022/12/10 12:36:22;;;;;;;18.70;11.27;;;;;;;;;;5081436;28;20204;-30
2022/12/10 12:38:53;;;;;;;16.87;11.33;;;;;;;;;;5081588;28;20197;-26
2022/12/10 12:41:26;;;;;;;15.60;10.77;;;;;;;;;;5081133;28;20228;-28
2022/12/10 12:43:54;;;;;;;17.37;11.40;;;;;;;;;;5085982;28;20307;-29
2022/12/10 12:46:32;;;;;;;28.53;14.97;;;;;;;;;;5085731;28;20192;-27
2022/12/10 12:49:02;;;;;;;31.27;14.90;;;;;;;;;;5080943;28;20550;-26
2022/12/10 12:51:33;;;;;;;28.63;14.83;;;;;;;;;;5085126;28;20217;-32
2022/12/10 12:54:00;;;;;;;13.77;8.93;;;;;;;;;;5088260;28;20204;-27
2022/12/10 12:56:36;;;;;;;11.83;7.60;;;;;;;;;;5081446;28;20434;-29
2022/12/10 12:59:07;;;;;;;13.20;8.13;;;;;;;;;;5087128;28;20192;-28
2022/12/10 13:01:38;;;;;;;19.13;10.80;;;;;;;;;;5088736;28;20229;-28
2022/12/10 13:04:06;;;;;;;17.27;9.93;;;;;;;;;;5082223;28;20200;-25
2022/12/10 13:06:34;;;;;;;15.17;9.70;;;;;;;;;;5080420;28;20197;-30
2022/12/10 13:09:17;;;;;;;18.27;10.47;;;;;;;;;;5076924;28;20208;-28
2022/12/10 13:11:44;;;;;;;18.90;12.90;;;;;;;;;;5078793;28;20231;-29
2022/12/10 13:14:20;;;;;;;14.43;11.27;;;;;;;;;;5090220;28;20207;-27
2022/12/10 13:16:51;;;;;;;15.27;10.57;;;;;;;;;;5079464;28;20536;-31
2022/12/10 13:19:25;;;;;;;17.63;10.10;;;;;;;;;;5085425;28;20292;-31
2022/12/10 13:21:59;;;;;;;17.07;10.53;;;;;;;;;;5083082;28;20229;-29
2022/12/10 13:24:42;;;;;;;17.37;11.17;;;;;;;;;;5082610;28;20237;-29
2022/12/10 13:27:17;;;;;;;18.23;10.87;;;;;;;;;;5077987;28;20284;-32
2022/12/10 13:29:56;;;;;;;21.20;12.40;;;;;;;;;;5084536;28;20196;-30
2022/12/10 13:32:27;;;;;;;21.27;13.27;;;;;;;;;;5076031;28;20417;-29
2022/12/10 13:35:09;;;;;;;20.73;12.00;;;;;;;;;;5086109;28;20304;-31
2022/12/10 13:37:38;;;;;;;24.73;11.47;;;;;;;;;;5085016;28;20228;-32
2022/12/10 13:40:16;;;;;;;18.03;10.73;;;;;;;;;;5088942;28;20192;-31
2022/12/10 13:45:31;;;;;;;17.27;11.37;;;;;;;;;;5090123;28;20249;-29
2022/12/10 13:48:13;;;;;;;21.47;11.43;;;;;;;;;;5090685;28;20669;-31
2022/12/10 13:50:46;;;;;;;22.60;14.47;;;;;;;;;;5082825;28;20217;-28
2022/12/10 13:53:19;;;;;;;20.10;11.90;;;;;;;;;;5090512;28;20191;-30
2022/12/10 13:55:49;;;;;;;17.63;11.63;;;;;;;;;;5085251;28;20201;-33
2022/12/10 13:58:25;;;;;;;20.10;11.40;;;;;;;;;;5089910;28;20545;-27
2022/12/10 14:00:58;;;;;;;17.80;11.73;;;;;;;;;;5079350;28;20216;-29
2022/12/10 14:03:40;;;;;;;21.83;12.57;;;;;;;;;;5090788;28;20771;-32
2022/12/10 14:06:14;;;;;;;18.53;12.70;;;;;;;;;;5079183;28;20220;-26
2022/12/10 14:08:42;;;;;;;17.43;11.37;;;;;;;;;;5092807;28;20204;-27
2022/12/10 14:11:13;;;;;;;20.77;13.83;;;;;;;;;;5087814;28;20224;-33
2022/12/10 14:13:42;;;;;;;19.63;12.43;;;;;;;;;;5090315;28;20198;-27
2022/12/10 14:16:12;;;;;;;17.53;12.27;;;;;;;;;;5090805;28;20201;-27
2022/12/10 14:18:39;;;;;;;16.07;11.43;;;;;;;;;;5079309;28;20214;-30
2022/12/10 14:21:07;;;;;;;19.40;11.77;;;;;;;;;;5081197;28;20298;-31
2022/12/10 14:23:41;;;;;;;20.63;13.10;;;;;;;;;;5087119;28;20557;-32
2022/12/10 14:26:10;;;;;;;20.63;11.17;;;;;;;;;;5079062;28;20307;-27
2022/12/10 14:28:40;;;;;;;21.63;14.43;;;;;;;;;;5084305;28;20329;-28
2022/12/10 14:31:11;;;;;;;19.47;13.30;;;;;;;;;;5080649;28;20303;-31
2022/12/10 14:33:38;;;;;;;17.60;11.00;;;;;;;;;;5091196;28;20868;-28
2022/12/10 14:36:06;;;;;;;16.83;10.90;;;;;;;;;;5092539;28;20207;-29
2022/12/10 14:38:35;;;;;;;18.83;10.93;;;;;;;;;;5091484;28;20211;-27
2022/12/10 14:41:04;;;;;;;15.60;10.20;;;;;;;;;;5075132;28;20303;-29
2022/12/10 14:43:34;;;;;;;17.20;10.60;;;;;;;;;;5084909;28;20666;-31
2022/12/10 14:46:02;;;;;;;17.10;10.13;;;;;;;;;;5080439;28;20459;-30
2022/12/10 14:48:29;;;;;;;17.93;11.20;;;;;;;;;;5085468;28;20201;-28
2022/12/10 14:50:58;;;;;;;15.63;11.00;;;;;;;;;;5084552;28;20231;-30